sensor_id;sensor_type;location;lat;lon;timestamp;P1;P2;P0
65012;PMS5003;51715;39.432;-77.518;2022-12-18T00:00:10;4;4;
65012;PMS5003;51715;39.432;-77.518;2022-12-18T00:02:49;5;5;
65012;PMS5003;51715;39.432;-77.518;2022-12-18T00:05:27;4;4;
65012;PMS5003;51715;39.432;-77.518;2022-12-18T00:08:06;2;2;
65012;PMS5003;51715;39.432;-77.518;2022-12-18T00:10:44;3;3;
65012;PMS5003;51715;39.432;-77.518;2022-12-18T00:13:23;5;5;
65012;PMS5003;51715;39.432;-77.518;2022-12-18T00:16:01;4;4;
65012;PMS5003;51715;39.432;-77.518;2022-12-18T00:18:41;4;4;
65012;PMS5003;51715;39.432;-77.518;2022-12-18T00:21:19;7;7;
65012;PMS5003;51715;39.432;-77.518;2022-12-18T00:23:58;4;4;
65012;PMS5003;51715;39.432;-77.518;2022-12-18T00:26:37;5;5;
65012;PMS5003;51715;39.432;-77.518;2022-12-18T00:29:16;7;7;
65012;PMS5003;51715;39.432;-77.518;2022-12-18T00:31:55;5;5;
65012;PMS5003;51715;39.432;-77.518;2022-12-18T00:34:33;5;5;
65012;PMS5003;51715;39.432;-77.518;2022-12-18T00:37:11;5;5;
65012;PMS5003;51715;39.432;-77.518;2022-12-18T00:39:49;5;5;
65012;PMS5003;51715;39.432;-77.518;2022-12-18T00:42:27;6;6;
65012;PMS5003;51715;39.432;-77.518;2022-12-18T00:45:06;6;6;
65012;PMS5003;51715;39.432;-77.518;2022-12-18T00:47:44;5;5;
65012;PMS5003;51715;39.432;-77.518;2022-12-18T00:50:23;7;5;
65012;PMS5003;51715;39.432;-77.518;2022-12-18T00:53:01;7;7;
65012;PMS5003;51715;39.432;-77.518;2022-12-18T00:55:39;6;6;
65012;PMS5003;51715;39.432;-77.518;2022-12-18T00:58:18;8;8;
65012;PMS5003;51715;39.432;-77.518;2022-12-18T01:00:56;6;4;
65012;PMS5003;51715;39.432;-77.518;2022-12-18T01:03:35;8;6;
65012;PMS5003;51715;39.432;-77.518;2022-12-18T01:06:14;7;7;
65012;PMS5003;51715;39.432;-77.518;2022-12-18T01:08:53;6;5;
65012;PMS5003;51715;39.432;-77.518;2022-12-18T01:11:31;6;5;
65012;PMS5003;51715;39.432;-77.518;2022-12-18T01:14:09;5;5;
65012;PMS5003;51715;39.432;-77.518;2022-12-18T01:16:47;6;6;
65012;PMS5003;51715;39.432;-77.518;2022-12-18T01:19:25;8;7;
65012;PMS5003;51715;39.432;-77.518;2022-12-18T01:22:04;9;7;
65012;PMS5003;51715;39.432;-77.518;2022-12-18T01:24:42;6;6;
65012;PMS5003;51715;39.432;-77.518;2022-12-18T01:27:20;7;7;
65012;PMS5003;51715;39.432;-77.518;2022-12-18T01:29:58;9;8;
65012;PMS5003;51715;39.432;-77.518;2022-12-18T01:32:36;7;7;
65012;PMS5003;51715;39.432;-77.518;2022-12-18T01:35:14;7;7;
65012;PMS5003;51715;39.432;-77.518;2022-12-18T01:37:54;5;5;
65012;PMS5003;51715;39.432;-77.518;2022-12-18T01:40:32;8;7;
65012;PMS5003;51715;39.432;-77.518;2022-12-18T01:43:10;6;6;
65012;PMS5003;51715;39.432;-77.518;2022-12-18T01:45:48;9;9;
65012;PMS5003;51715;39.432;-77.518;2022-12-18T01:48:27;7;7;
65012;PMS5003;51715;39.432;-77.518;2022-12-18T01:51:05;8;7;
65012;PMS5003;51715;39.432;-77.518;2022-12-18T01:53:44;9;7;
65012;PMS5003;51715;39.432;-77.518;2022-12-18T01:56:22;11;8;
65012;PMS5003;51715;39.432;-77.518;2022-12-18T01:59:01;9;8;
65012;PMS5003;51715;39.432;-77.518;2022-12-18T02:01:41;8;7;
65012;PMS5003;51715;39.432;-77.518;2022-12-18T02:04:20;6;4;
65012;PMS5003;51715;39.432;-77.518;2022-12-18T02:07:00;5;5;
65012;PMS5003;51715;39.432;-77.518;2022-12-18T02:09:50;6;6;
65012;PMS5003;51715;39.432;-77.518;2022-12-18T02:12:33;6;6;
65012;PMS5003;51715;39.432;-77.518;2022-12-18T02:15:19;5;5;
65012;PMS5003;51715;39.432;-77.518;2022-12-18T02:18:06;5;5;
65012;PMS5003;51715;39.432;-77.518;2022-12-18T02:20:53;5;5;
65012;PMS5003;51715;39.432;-77.518;2022-12-18T02:23:45;4;4;
65012;PMS5003;51715;39.432;-77.518;2022-12-18T02:26:28;5;5;
65012;PMS5003;51715;39.432;-77.518;2022-12-18T02:29:14;5;5;
65012;PMS5003;51715;39.432;-77.518;2022-12-18T02:31:55;8;8;
65012;PMS5003;51715;39.432;-77.518;2022-12-18T02:34:38;8;8;
65012;PMS5003;51715;39.432;-77.518;2022-12-18T02:37:18;5;5;
65012;PMS5003;51715;39.432;-77.518;2022-12-18T02:39:59;8;8;
65012;PMS5003;51715;39.432;-77.518;2022-12-18T02:42:38;7;7;
65012;PMS5003;51715;39.432;-77.518;2022-12-18T02:45:17;10;7;
65012;PMS5003;51715;39.432;-77.518;2022-12-18T02:47:55;7;7;
65012;PMS5003;51715;39.432;-77.518;2022-12-18T02:50:34;6;6;
65012;PMS5003;51715;39.432;-77.518;2022-12-18T02:53:19;8;8;
65012;PMS5003;51715;39.432;-77.518;2022-12-18T02:56:05;7;6;
65012;PMS5003;51715;39.432;-77.518;2022-12-18T02:58:51;8;8;
65012;PMS5003;51715;39.432;-77.518;2022-12-18T03:01:33;9;6;
65012;PMS5003;51715;39.432;-77.518;2022-12-18T03:04:20;7;7;
65012;PMS5003;51715;39.432;-77.518;2022-12-18T03:07:04;9;9;
65012;PMS5003;51715;39.432;-77.518;2022-12-18T03:09:47;8;8;
65012;PMS5003;51715;39.432;-77.518;2022-12-18T03:12:28;7;7;
65012;PMS5003;51715;39.432;-77.518;2022-12-18T03:15:10;7;7;
65012;PMS5003;51715;39.432;-77.518;2022-12-18T03:17:52;8;8;
65012;PMS5003;51715;39.432;-77.518;2022-12-18T03:20:34;9;8;
65012;PMS5003;51715;39.432;-77.518;2022-12-18T03:23:16;9;9;
65012;PMS5003;51715;39.432;-77.518;2022-12-18T03:25:59;10;7;
65012;PMS5003;51715;39.432;-77.518;2022-12-18T03:28:43;8;8;
65012;PMS5003;51715;39.432;-77.518;2022-12-18T03:31:26;11;9;
65012;PMS5003;51715;39.432;-77.518;2022-12-18T03:34:08;8;8;
65012;PMS5003;51715;39.432;-77.518;2022-12-18T03:36:50;9;8;
65012;PMS5003;51715;39.432;-77.518;2022-12-18T03:39:28;10;8;
65012;PMS5003;51715;39.432;-77.518;2022-12-18T03:42:10;7;7;
65012;PMS5003;51715;39.432;-77.518;2022-12-18T03:44:57;8;8;
65012;PMS5003;51715;39.432;-77.518;2022-12-18T03:47:42;9;9;
65012;PMS5003;51715;39.432;-77.518;2022-12-18T03:50:37;11;11;
65012;PMS5003;51715;39.432;-77.518;2022-12-18T03:53:21;10;10;
65012;PMS5003;51715;39.432;-77.518;2022-12-18T03:56:07;9;9;
65012;PMS5003;51715;39.432;-77.518;2022-12-18T03:58:48;8;8;
65012;PMS5003;51715;39.432;-77.518;2022-12-18T04:01:30;13;12;
65012;PMS5003;51715;39.432;-77.518;2022-12-18T04:04:12;10;10;
65012;PMS5003;51715;39.432;-77.518;2022-12-18T04:06:51;7;7;
65012;PMS5003;51715;39.432;-77.518;2022-12-18T04:09:31;10;10;
65012;PMS5003;51715;39.432;-77.518;2022-12-18T04:12:10;7;7;
65012;PMS5003;51715;39.432;-77.518;2022-12-18T04:14:49;10;10;
65012;PMS5003;51715;39.432;-77.518;2022-12-18T04:17:28;9;9;
65012;PMS5003;51715;39.432;-77.518;2022-12-18T04:20:06;5;5;
65012;PMS5003;51715;39.432;-77.518;2022-12-18T04:22:44;9;9;
65012;PMS5003;51715;39.432;-77.518;2022-12-18T04:25:23;8;8;
65012;PMS5003;51715;39.432;-77.518;2022-12-18T04:28:01;6;5;
65012;PMS5003;51715;39.432;-77.518;2022-12-18T04:30:39;9;6;
65012;PMS5003;51715;39.432;-77.518;2022-12-18T04:33:17;7;6;
65012;PMS5003;51715;39.432;-77.518;2022-12-18T04:35:55;9;9;
65012;PMS5003;51715;39.432;-77.518;2022-12-18T04:38:34;8;8;
65012;PMS5003;51715;39.432;-77.518;2022-12-18T04:41:12;9;7;
65012;PMS5003;51715;39.432;-77.518;2022-12-18T04:43:50;7;7;
65012;PMS5003;51715;39.432;-77.518;2022-12-18T04:46:28;10;8;
65012;PMS5003;51715;39.432;-77.518;2022-12-18T04:49:06;11;9;
65012;PMS5003;51715;39.432;-77.518;2022-12-18T04:51:44;10;10;
65012;PMS5003;51715;39.432;-77.518;2022-12-18T04:54:22;10;8;
65012;PMS5003;51715;39.432;-77.518;2022-12-18T04:57:01;6;6;
65012;PMS5003;51715;39.432;-77.518;2022-12-18T04:59:39;8;8;
65012;PMS5003;51715;39.432;-77.518;2022-12-18T05:03:42;9;9;
65012;PMS5003;51715;39.432;-77.518;2022-12-18T05:06:12;9;7;
65012;PMS5003;51715;39.432;-77.518;2022-12-18T05:08:41;6;6;
65012;PMS5003;51715;39.432;-77.518;2022-12-18T05:11:11;8;8;
65012;PMS5003;51715;39.432;-77.518;2022-12-18T05:13:41;9;9;
65012;PMS5003;51715;39.432;-77.518;2022-12-18T05:16:11;7;6;
65012;PMS5003;51715;39.432;-77.518;2022-12-18T06:13:10;7;7;
65012;PMS5003;51715;39.432;-77.518;2022-12-18T06:15:38;6;6;
65012;PMS5003;51715;39.432;-77.518;2022-12-18T06:18:05;6;6;
65012;PMS5003;51715;39.432;-77.518;2022-12-18T06:20:33;8;8;
65012;PMS5003;51715;39.432;-77.518;2022-12-18T06:23:00;9;8;
65012;PMS5003;51715;39.432;-77.518;2022-12-18T06:25:27;12;10;
65012;PMS5003;51715;39.432;-77.518;2022-12-18T06:27:55;9;9;
65012;PMS5003;51715;39.432;-77.518;2022-12-18T06:30:24;9;7;
65012;PMS5003;51715;39.432;-77.518;2022-12-18T06:32:52;7;7;
65012;PMS5003;51715;39.432;-77.518;2022-12-18T06:35:20;9;7;
65012;PMS5003;51715;39.432;-77.518;2022-12-18T06:37:49;5;5;
65012;PMS5003;51715;39.432;-77.518;2022-12-18T06:40:17;8;8;
65012;PMS5003;51715;39.432;-77.518;2022-12-18T06:42:46;6;5;
65012;PMS5003;51715;39.432;-77.518;2022-12-18T06:45:16;6;5;
65012;PMS5003;51715;39.432;-77.518;2022-12-18T06:47:44;6;6;
65012;PMS5003;51715;39.432;-77.518;2022-12-18T06:50:13;6;6;
65012;PMS5003;51715;39.432;-77.518;2022-12-18T06:52:41;5;5;
65012;PMS5003;51715;39.432;-77.518;2022-12-18T06:55:10;6;6;
65012;PMS5003;51715;39.432;-77.518;2022-12-18T06:57:38;6;6;
65012;PMS5003;51715;39.432;-77.518;2022-12-18T07:00:07;8;5;
65012;PMS5003;51715;39.432;-77.518;2022-12-18T07:02:36;6;6;
65012;PMS5003;51715;39.432;-77.518;2022-12-18T07:05:05;4;4;
65012;PMS5003;51715;39.432;-77.518;2022-12-18T07:07:34;5;5;
65012;PMS5003;51715;39.432;-77.518;2022-12-18T07:10:04;6;6;
65012;PMS5003;51715;39.432;-77.518;2022-12-18T07:12:32;7;6;
65012;PMS5003;51715;39.432;-77.518;2022-12-18T07:15:01;7;5;
65012;PMS5003;51715;39.432;-77.518;2022-12-18T07:17:30;6;6;
65012;PMS5003;51715;39.432;-77.518;2022-12-18T07:19:58;4;4;
65012;PMS5003;51715;39.432;-77.518;2022-12-18T07:22:25;7;6;
65012;PMS5003;51715;39.432;-77.518;2022-12-18T07:24:53;5;4;
65012;PMS5003;51715;39.432;-77.518;2022-12-18T07:27:21;4;4;
65012;PMS5003;51715;39.432;-77.518;2022-12-18T07:29:50;7;5;
65012;PMS5003;51715;39.432;-77.518;2022-12-18T07:32:18;8;6;
65012;PMS5003;51715;39.432;-77.518;2022-12-18T07:34:48;6;5;
65012;PMS5003;51715;39.432;-77.518;2022-12-18T07:37:16;7;7;
65012;PMS5003;51715;39.432;-77.518;2022-12-18T07:39:45;7;5;
65012;PMS5003;51715;39.432;-77.518;2022-12-18T07:42:13;6;5;
65012;PMS5003;51715;39.432;-77.518;2022-12-18T07:44:41;5;5;
65012;PMS5003;51715;39.432;-77.518;2022-12-18T07:47:09;7;7;
65012;PMS5003;51715;39.432;-77.518;2022-12-18T07:49:37;5;5;
65012;PMS5003;51715;39.432;-77.518;2022-12-18T07:52:05;7;6;
65012;PMS5003;51715;39.432;-77.518;2022-12-18T07:54:33;6;6;
65012;PMS5003;51715;39.432;-77.518;2022-12-18T07:57:01;9;8;
65012;PMS5003;51715;39.432;-77.518;2022-12-18T07:59:29;5;5;
65012;PMS5003;51715;39.432;-77.518;2022-12-18T08:01:57;7;5;
65012;PMS5003;51715;39.432;-77.518;2022-12-18T08:04:27;6;6;
65012;PMS5003;51715;39.432;-77.518;2022-12-18T08:06:55;5;5;
65012;PMS5003;51715;39.432;-77.518;2022-12-18T08:09:23;7;5;
65012;PMS5003;51715;39.432;-77.518;2022-12-18T08:11:52;6;6;
65012;PMS5003;51715;39.432;-77.518;2022-12-18T08:14:21;5;3;
65012;PMS5003;51715;39.432;-77.518;2022-12-18T08:16:49;6;6;
65012;PMS5003;51715;39.432;-77.518;2022-12-18T08:19:19;7;5;
65012;PMS5003;51715;39.432;-77.518;2022-12-18T08:21:47;6;6;
65012;PMS5003;51715;39.432;-77.518;2022-12-18T08:24:15;4;4;
65012;PMS5003;51715;39.432;-77.518;2022-12-18T08:26:43;7;6;
65012;PMS5003;51715;39.432;-77.518;2022-12-18T08:29:11;4;4;
65012;PMS5003;51715;39.432;-77.518;2022-12-18T08:31:40;5;5;
65012;PMS5003;51715;39.432;-77.518;2022-12-18T08:34:09;6;6;
65012;PMS5003;51715;39.432;-77.518;2022-12-18T08:36:36;4;4;
65012;PMS5003;51715;39.432;-77.518;2022-12-18T08:39:05;7;5;
65012;PMS5003;51715;39.432;-77.518;2022-12-18T08:41:33;5;5;
65012;PMS5003;51715;39.432;-77.518;2022-12-18T08:44:01;5;5;
65012;PMS5003;51715;39.432;-77.518;2022-12-18T08:46:32;10;10;
65012;PMS5003;51715;39.432;-77.518;2022-12-18T08:49:02;6;6;
65012;PMS5003;51715;39.432;-77.518;2022-12-18T08:51:31;6;6;
65012;PMS5003;51715;39.432;-77.518;2022-12-18T08:53:59;6;6;
65012;PMS5003;51715;39.432;-77.518;2022-12-18T08:56:28;7;7;
65012;PMS5003;51715;39.432;-77.518;2022-12-18T08:58:56;6;5;
65012;PMS5003;51715;39.432;-77.518;2022-12-18T09:01:25;3;3;
65012;PMS5003;51715;39.432;-77.518;2022-12-18T09:03:53;4;4;
65012;PMS5003;51715;39.432;-77.518;2022-12-18T09:06:22;5;5;
65012;PMS5003;51715;39.432;-77.518;2022-12-18T09:08:50;7;7;
65012;PMS5003;51715;39.432;-77.518;2022-12-18T09:11:19;5;5;
65012;PMS5003;51715;39.432;-77.518;2022-12-18T09:13:49;7;6;
65012;PMS5003;51715;39.432;-77.518;2022-12-18T09:16:18;7;6;
65012;PMS5003;51715;39.432;-77.518;2022-12-18T09:18:46;5;5;
65012;PMS5003;51715;39.432;-77.518;2022-12-18T09:21:16;6;6;
65012;PMS5003;51715;39.432;-77.518;2022-12-18T09:23:48;6;5;
65012;PMS5003;51715;39.432;-77.518;2022-12-18T09:26:18;6;5;
65012;PMS5003;51715;39.432;-77.518;2022-12-18T09:28:46;5;5;
65012;PMS5003;51715;39.432;-77.518;2022-12-18T09:31:16;5;5;
65012;PMS5003;51715;39.432;-77.518;2022-12-18T09:33:46;5;5;
65012;PMS5003;51715;39.432;-77.518;2022-12-18T09:36:16;7;7;
65012;PMS5003;51715;39.432;-77.518;2022-12-18T09:38:44;6;6;
65012;PMS5003;51715;39.432;-77.518;2022-12-18T09:41:17;7;7;
65012;PMS5003;51715;39.432;-77.518;2022-12-18T09:44:01;6;6;
65012;PMS5003;51715;39.432;-77.518;2022-12-18T09:46:38;6;6;
65012;PMS5003;51715;39.432;-77.518;2022-12-18T09:49:12;5;5;
65012;PMS5003;51715;39.432;-77.518;2022-12-18T09:51:42;4;4;
65012;PMS5003;51715;39.432;-77.518;2022-12-18T09:54:16;6;6;
65012;PMS5003;51715;39.432;-77.518;2022-12-18T09:56:48;10;8;
65012;PMS5003;51715;39.432;-77.518;2022-12-18T09:59:19;7;7;
65012;PMS5003;51715;39.432;-77.518;2022-12-18T10:01:51;5;5;
65012;PMS5003;51715;39.432;-77.518;2022-12-18T10:04:20;7;5;
65012;PMS5003;51715;39.432;-77.518;2022-12-18T10:06:50;5;5;
65012;PMS5003;51715;39.432;-77.518;2022-12-18T10:09:27;5;5;
65012;PMS5003;51715;39.432;-77.518;2022-12-18T10:12:04;5;5;
65012;PMS5003;51715;39.432;-77.518;2022-12-18T10:14:39;4;4;
65012;PMS5003;51715;39.432;-77.518;2022-12-18T10:17:14;5;5;
65012;PMS5003;51715;39.432;-77.518;2022-12-18T10:19:54;3;3;
65012;PMS5003;51715;39.432;-77.518;2022-12-18T10:22:31;6;6;
65012;PMS5003;51715;39.432;-77.518;2022-12-18T10:25:15;5;5;
65012;PMS5003;51715;39.432;-77.518;2022-12-18T10:27:49;7;7;
65012;PMS5003;51715;39.432;-77.518;2022-12-18T10:30:22;5;5;
65012;PMS5003;51715;39.432;-77.518;2022-12-18T10:32:52;7;7;
65012;PMS5003;51715;39.432;-77.518;2022-12-18T10:35:21;5;5;
65012;PMS5003;51715;39.432;-77.518;2022-12-18T10:38:19;6;6;
65012;PMS5003;51715;39.432;-77.518;2022-12-18T10:40:51;5;5;
65012;PMS5003;51715;39.432;-77.518;2022-12-18T10:43:22;4;4;
65012;PMS5003;51715;39.432;-77.518;2022-12-18T10:46:00;7;7;
65012;PMS5003;51715;39.432;-77.518;2022-12-18T10:48:33;5;5;
65012;PMS5003;51715;39.432;-77.518;2022-12-18T10:51:03;7;7;
65012;PMS5003;51715;39.432;-77.518;2022-12-18T10:53:33;8;5;
65012;PMS5003;51715;39.432;-77.518;2022-12-18T10:56:03;9;9;
65012;PMS5003;51715;39.432;-77.518;2022-12-18T10:58:34;9;7;
65012;PMS5003;51715;39.432;-77.518;2022-12-18T11:01:06;7;7;
65012;PMS5003;51715;39.432;-77.518;2022-12-18T11:03:37;4;4;
65012;PMS5003;51715;39.432;-77.518;2022-12-18T11:06:08;6;6;
65012;PMS5003;51715;39.432;-77.518;2022-12-18T11:08:38;6;5;
65012;PMS5003;51715;39.432;-77.518;2022-12-18T11:11:15;8;7;
65012;PMS5003;51715;39.432;-77.518;2022-12-18T11:13:49;6;6;
65012;PMS5003;51715;39.432;-77.518;2022-12-18T11:16:24;9;9;
65012;PMS5003;51715;39.432;-77.518;2022-12-18T11:18:53;6;6;
65012;PMS5003;51715;39.432;-77.518;2022-12-18T11:21:38;9;8;
65012;PMS5003;51715;39.432;-77.518;2022-12-18T11:24:07;6;6;
65012;PMS5003;51715;39.432;-77.518;2022-12-18T11:26:48;7;7;
65012;PMS5003;51715;39.432;-77.518;2022-12-18T11:29:17;6;6;
65012;PMS5003;51715;39.432;-77.518;2022-12-18T11:31:50;5;5;
65012;PMS5003;51715;39.432;-77.518;2022-12-18T11:34:39;7;6;
65012;PMS5003;51715;39.432;-77.518;2022-12-18T11:37:12;5;5;
65012;PMS5003;51715;39.432;-77.518;2022-12-18T11:39:42;5;5;
65012;PMS5003;51715;39.432;-77.518;2022-12-18T11:42:17;5;5;
65012;PMS5003;51715;39.432;-77.518;2022-12-18T11:44:52;9;8;
65012;PMS5003;51715;39.432;-77.518;2022-12-18T11:47:27;9;7;
65012;PMS5003;51715;39.432;-77.518;2022-12-18T11:50:10;10;9;
65012;PMS5003;51715;39.432;-77.518;2022-12-18T11:52:42;10;8;
65012;PMS5003;51715;39.432;-77.518;2022-12-18T11:55:12;8;8;
65012;PMS5003;51715;39.432;-77.518;2022-12-18T11:57:45;6;6;
65012;PMS5003;51715;39.432;-77.518;2022-12-18T12:00:22;5;5;
65012;PMS5003;51715;39.432;-77.518;2022-12-18T12:03:05;6;6;
65012;PMS5003;51715;39.432;-77.518;2022-12-18T12:05:44;9;9;
65012;PMS5003;51715;39.432;-77.518;2022-12-18T12:08:26;7;7;
65012;PMS5003;51715;39.432;-77.518;2022-12-18T12:11:04;10;9;
65012;PMS5003;51715;39.432;-77.518;2022-12-18T12:13:40;22;21;
65012;PMS5003;51715;39.432;-77.518;2022-12-18T12:16:17;19;19;
65012;PMS5003;51715;39.432;-77.518;2022-12-18T12:18:56;19;16;
65012;PMS5003;51715;39.432;-77.518;2022-12-18T12:21:39;21;20;
65012;PMS5003;51715;39.432;-77.518;2022-12-18T12:24:12;21;18;
65012;PMS5003;51715;39.432;-77.518;2022-12-18T12:26:56;14;14;
65012;PMS5003;51715;39.432;-77.518;2022-12-18T12:29:33;27;23;
65012;PMS5003;51715;39.432;-77.518;2022-12-18T12:32:17;15;13;
65012;PMS5003;51715;39.432;-77.518;2022-12-18T12:34:58;11;11;
65012;PMS5003;51715;39.432;-77.518;2022-12-18T12:37:41;9;9;
65012;PMS5003;51715;39.432;-77.518;2022-12-18T12:40:20;11;9;
65012;PMS5003;51715;39.432;-77.518;2022-12-18T12:42:54;28;28;
65012;PMS5003;51715;39.432;-77.518;2022-12-18T12:45:26;21;18;
65012;PMS5003;51715;39.432;-77.518;2022-12-18T13:36:00;21;18;
65012;PMS5003;51715;39.432;-77.518;2022-12-18T13:38:35;52;50;
65012;PMS5003;51715;39.432;-77.518;2022-12-18T13:41:04;34;33;
65012;PMS5003;51715;39.432;-77.518;2022-12-18T13:43:49;16;16;
65012;PMS5003;51715;39.432;-77.518;2022-12-18T13:46:19;31;27;
65012;PMS5003;51715;39.432;-77.518;2022-12-18T13:48:51;10;10;
65012;PMS5003;51715;39.432;-77.518;2022-12-18T13:51:22;5;5;
65012;PMS5003;51715;39.432;-77.518;2022-12-18T13:53:53;10;10;
65012;PMS5003;51715;39.432;-77.518;2022-12-18T13:56:26;10;10;
65012;PMS5003;51715;39.432;-77.518;2022-12-18T13:59:14;7;7;
65012;PMS5003;51715;39.432;-77.518;2022-12-18T14:01:46;7;7;
65012;PMS5003;51715;39.432;-77.518;2022-12-18T14:04:19;14;13;
65012;PMS5003;51715;39.432;-77.518;2022-12-18T14:06:52;10;7;
65012;PMS5003;51715;39.432;-77.518;2022-12-18T14:09:25;10;10;
65012;PMS5003;51715;39.432;-77.518;2022-12-18T14:11:57;10;9;
65012;PMS5003;51715;39.432;-77.518;2022-12-18T14:14:27;9;9;
65012;PMS5003;51715;39.432;-77.518;2022-12-18T14:16:55;6;6;
65012;PMS5003;51715;39.432;-77.518;2022-12-18T14:19:24;8;8;
65012;PMS5003;51715;39.432;-77.518;2022-12-18T14:21:53;8;8;
65012;PMS5003;51715;39.432;-77.518;2022-12-18T14:24:22;7;7;
65012;PMS5003;51715;39.432;-77.518;2022-12-18T14:26:50;8;8;
65012;PMS5003;51715;39.432;-77.518;2022-12-18T14:29:20;8;6;
65012;PMS5003;51715;39.432;-77.518;2022-12-18T14:32:09;11;9;
65012;PMS5003;51715;39.432;-77.518;2022-12-18T14:34:39;8;8;
65012;PMS5003;51715;39.432;-77.518;2022-12-18T14:37:09;7;6;
65012;PMS5003;51715;39.432;-77.518;2022-12-18T14:39:38;9;9;
65012;PMS5003;51715;39.432;-77.518;2022-12-18T14:42:10;8;7;
65012;PMS5003;51715;39.432;-77.518;2022-12-18T14:44:38;8;8;
65012;PMS5003;51715;39.432;-77.518;2022-12-18T14:47:12;5;5;
65012;PMS5003;51715;39.432;-77.518;2022-12-18T14:49:42;6;6;
65012;PMS5003;51715;39.432;-77.518;2022-12-18T14:52:17;7;6;
65012;PMS5003;51715;39.432;-77.518;2022-12-18T14:54:51;7;7;
65012;PMS5003;51715;39.432;-77.518;2022-12-18T14:57:21;6;6;
65012;PMS5003;51715;39.432;-77.518;2022-12-18T14:59:51;9;9;
65012;PMS5003;51715;39.432;-77.518;2022-12-18T15:02:21;8;8;
65012;PMS5003;51715;39.432;-77.518;2022-12-18T15:04:59;8;8;
65012;PMS5003;51715;39.432;-77.518;2022-12-18T15:07:39;9;8;
65012;PMS5003;51715;39.432;-77.518;2022-12-18T15:10:11;6;6;
65012;PMS5003;51715;39.432;-77.518;2022-12-18T15:12:42;9;8;
65012;PMS5003;51715;39.432;-77.518;2022-12-18T15:15:46;8;8;
65012;PMS5003;51715;39.432;-77.518;2022-12-18T15:18:15;13;13;
65012;PMS5003;51715;39.432;-77.518;2022-12-18T15:20:46;6;5;
65012;PMS5003;51715;39.432;-77.518;2022-12-18T15:23:18;6;6;
65012;PMS5003;51715;39.432;-77.518;2022-12-18T15:25:49;18;17;
65012;PMS5003;51715;39.432;-77.518;2022-12-18T15:28:24;8;8;
65012;PMS5003;51715;39.432;-77.518;2022-12-18T15:31:00;7;7;
65012;PMS5003;51715;39.432;-77.518;2022-12-18T15:33:32;8;8;
65012;PMS5003;51715;39.432;-77.518;2022-12-18T15:36:03;8;8;
65012;PMS5003;51715;39.432;-77.518;2022-12-18T15:38:35;8;8;
65012;PMS5003;51715;39.432;-77.518;2022-12-18T15:41:11;8;7;
65012;PMS5003;51715;39.432;-77.518;2022-12-18T15:43:41;7;7;
65012;PMS5003;51715;39.432;-77.518;2022-12-18T15:46:11;8;8;
65012;PMS5003;51715;39.432;-77.518;2022-12-18T15:48:41;8;8;
65012;PMS5003;51715;39.432;-77.518;2022-12-18T15:51:13;9;9;
65012;PMS5003;51715;39.432;-77.518;2022-12-18T15:53:44;8;8;
65012;PMS5003;51715;39.432;-77.518;2022-12-18T15:56:13;5;5;
65012;PMS5003;51715;39.432;-77.518;2022-12-18T15:58:42;7;7;
65012;PMS5003;51715;39.432;-77.518;2022-12-18T16:01:11;6;6;
65012;PMS5003;51715;39.432;-77.518;2022-12-18T16:03:39;5;5;
65012;PMS5003;51715;39.432;-77.518;2022-12-18T16:06:08;6;5;
65012;PMS5003;51715;39.432;-77.518;2022-12-18T16:08:37;8;6;
65012;PMS5003;51715;39.432;-77.518;2022-12-18T16:11:05;7;7;
65012;PMS5003;51715;39.432;-77.518;2022-12-18T16:13:43;7;5;
65012;PMS5003;51715;39.432;-77.518;2022-12-18T16:16:12;4;4;
65012;PMS5003;51715;39.432;-77.518;2022-12-18T16:18:40;6;6;
65012;PMS5003;51715;39.432;-77.518;2022-12-18T16:21:09;7;7;
65012;PMS5003;51715;39.432;-77.518;2022-12-18T16:23:38;6;6;
65012;PMS5003;51715;39.432;-77.518;2022-12-18T16:28:06;6;6;
65012;PMS5003;51715;39.432;-77.518;2022-12-18T16:30:35;4;4;
65012;PMS5003;51715;39.432;-77.518;2022-12-18T16:33:03;6;5;
65012;PMS5003;51715;39.432;-77.518;2022-12-18T16:35:32;6;6;
65012;PMS5003;51715;39.432;-77.518;2022-12-18T16:38:01;7;4;
65012;PMS5003;51715;39.432;-77.518;2022-12-18T16:40:31;8;7;
65012;PMS5003;51715;39.432;-77.518;2022-12-18T16:43:00;5;5;
65012;PMS5003;51715;39.432;-77.518;2022-12-18T16:45:28;4;4;
65012;PMS5003;51715;39.432;-77.518;2022-12-18T16:47:56;6;6;
65012;PMS5003;51715;39.432;-77.518;2022-12-18T16:50:24;6;6;
65012;PMS5003;51715;39.432;-77.518;2022-12-18T16:52:53;5;5;
65012;PMS5003;51715;39.432;-77.518;2022-12-18T16:55:22;7;7;
65012;PMS5003;51715;39.432;-77.518;2022-12-18T16:57:51;6;6;
65012;PMS5003;51715;39.432;-77.518;2022-12-18T17:00:20;3;3;
65012;PMS5003;51715;39.432;-77.518;2022-12-18T17:02:47;5;5;
65012;PMS5003;51715;39.432;-77.518;2022-12-18T17:05:16;5;5;
65012;PMS5003;51715;39.432;-77.518;2022-12-18T17:07:45;7;6;
65012;PMS5003;51715;39.432;-77.518;2022-12-18T17:10:13;8;7;
65012;PMS5003;51715;39.432;-77.518;2022-12-18T17:12:41;4;4;
65012;PMS5003;51715;39.432;-77.518;2022-12-18T17:15:10;5;5;
65012;PMS5003;51715;39.432;-77.518;2022-12-18T17:17:39;5;5;
65012;PMS5003;51715;39.432;-77.518;2022-12-18T17:20:08;6;6;
65012;PMS5003;51715;39.432;-77.518;2022-12-18T17:22:37;7;5;
65012;PMS5003;51715;39.432;-77.518;2022-12-18T17:25:06;4;4;
65012;PMS5003;51715;39.432;-77.518;2022-12-18T17:27:35;6;5;
65012;PMS5003;51715;39.432;-77.518;2022-12-18T17:30:04;4;4;
65012;PMS5003;51715;39.432;-77.518;2022-12-18T17:32:33;6;3;
65012;PMS5003;51715;39.432;-77.518;2022-12-18T17:35:03;5;5;
65012;PMS5003;51715;39.432;-77.518;2022-12-18T17:37:32;8;8;
65012;PMS5003;51715;39.432;-77.518;2022-12-18T17:40:00;5;5;
65012;PMS5003;51715;39.432;-77.518;2022-12-18T17:42:28;5;5;
65012;PMS5003;51715;39.432;-77.518;2022-12-18T17:44:57;4;4;
65012;PMS5003;51715;39.432;-77.518;2022-12-18T17:47:25;5;5;
65012;PMS5003;51715;39.432;-77.518;2022-12-18T17:49:55;7;6;
65012;PMS5003;51715;39.432;-77.518;2022-12-18T17:52:23;5;5;
65012;PMS5003;51715;39.432;-77.518;2022-12-18T17:54:51;5;5;
65012;PMS5003;51715;39.432;-77.518;2022-12-18T17:57:20;4;3;
65012;PMS5003;51715;39.432;-77.518;2022-12-18T17:59:48;6;6;
65012;PMS5003;51715;39.432;-77.518;2022-12-18T18:02:17;6;4;
65012;PMS5003;51715;39.432;-77.518;2022-12-18T18:04:45;4;4;
65012;PMS5003;51715;39.432;-77.518;2022-12-18T18:07:13;3;3;
65012;PMS5003;51715;39.432;-77.518;2022-12-18T18:09:41;5;5;
65012;PMS5003;51715;39.432;-77.518;2022-12-18T18:12:10;4;4;
65012;PMS5003;51715;39.432;-77.518;2022-12-18T18:14:39;4;4;
65012;PMS5003;51715;39.432;-77.518;2022-12-18T18:17:07;4;4;
65012;PMS5003;51715;39.432;-77.518;2022-12-18T18:19:36;9;7;
65012;PMS5003;51715;39.432;-77.518;2022-12-18T18:22:05;4;3;
65012;PMS5003;51715;39.432;-77.518;2022-12-18T18:24:33;5;5;
65012;PMS5003;51715;39.432;-77.518;2022-12-18T18:27:02;4;4;
65012;PMS5003;51715;39.432;-77.518;2022-12-18T18:29:31;6;5;
65012;PMS5003;51715;39.432;-77.518;2022-12-18T18:31:59;2;2;
65012;PMS5003;51715;39.432;-77.518;2022-12-18T18:34:27;6;5;
65012;PMS5003;51715;39.432;-77.518;2022-12-18T18:36:58;4;4;
65012;PMS5003;51715;39.432;-77.518;2022-12-18T18:39:27;6;5;
65012;PMS5003;51715;39.432;-77.518;2022-12-18T18:41:55;4;4;